Albany, Vermont
Current Conditions -  °F | °C
As of 12:55 AM on Monday 22 Dec 2014 (Local Time) from KEFK Reporting Station
Haze Haze  
Wind Chill: 19°   Ceiling: 2400
Heat Index: 19°   Visibility: 5mi
Dew Point: 17°   Wind: 0mph
Humidity: 92%   Direction: NA
Pressure: 30.36"   Gusts: NA
Location:  44.73°N, 72.38°W
Report Text: KEFK 220555Z AUTO 00000KT 5SM BR OVC024 M07/M09 A3036 RMK AO2 T10751086 11073 21078
Loading
Personal Weather Stations






























Interactive Weather Map New forecast layout! Learn more

10-Day Weather Forecast

Advertisements
Track Severe Weather on mobile